createdAt,value
2018-09-14T00:00:41.558Z,100.00
2018-09-14T00:03:08.804Z,100.00
2018-09-14T00:05:35.944Z,100.00
2018-09-14T00:08:03.943Z,100.00
2018-09-14T00:10:31.203Z,100.00
2018-09-14T00:12:58.336Z,100.00
2018-09-14T00:15:25.504Z,100.00
2018-09-14T00:17:52.750Z,100.00
2018-09-14T00:20:19.858Z,100.00
2018-09-14T00:22:47.100Z,100.00
2018-09-14T00:25:14.240Z,100.00
2018-09-14T00:27:41.352Z,100.00
2018-09-14T00:30:08.541Z,100.00
2018-09-14T00:32:35.711Z,100.00
2018-09-14T00:35:03.844Z,100.00
2018-09-14T00:37:31.056Z,100.00
2018-09-14T00:39:58.185Z,100.00
2018-09-14T00:42:25.348Z,100.00
2018-09-14T00:44:52.550Z,100.00
2018-09-14T00:47:19.688Z,100.00
2018-09-14T00:49:46.802Z,100.00
2018-09-14T00:52:14.001Z,100.00
2018-09-14T00:54:41.107Z,100.00
2018-09-14T00:57:08.276Z,100.00
2018-09-14T00:59:35.426Z,100.00
2018-09-14T01:02:02.535Z,100.00
2018-09-14T01:04:29.672Z,100.00
2018-09-14T01:06:56.873Z,100.00
2018-09-14T01:09:26.497Z,100.00
2018-09-14T01:11:54.516Z,100.00
2018-09-14T01:14:21.683Z,100.00
2018-09-14T01:16:48.848Z,100.00
2018-09-14T01:19:15.980Z,100.00
2018-09-14T01:21:43.165Z,100.00
2018-09-14T01:24:10.268Z,100.00
2018-09-14T01:26:37.688Z,100.00
2018-09-14T01:29:05.045Z,100.00
2018-09-14T01:31:32.204Z,100.00
2018-09-14T01:33:59.373Z,100.00
2018-09-14T01:36:26.625Z,100.00
2018-09-14T01:38:53.757Z,100.00
2018-09-14T01:41:20.904Z,100.00
2018-09-14T01:43:48.052Z,100.00
2018-09-14T01:46:15.160Z,100.00
2018-09-14T01:48:42.449Z,100.00
2018-09-14T01:51:09.596Z,100.00
2018-09-14T01:53:36.772Z,100.00
2018-09-14T01:56:03.960Z,100.00
2018-09-14T01:58:31.037Z,100.00
2018-09-14T02:00:58.163Z,100.00
2018-09-14T02:03:25.354Z,100.00
2018-09-14T02:05:52.508Z,100.00
2018-09-14T02:08:19.696Z,100.00
2018-09-14T02:10:46.809Z,100.00
2018-09-14T02:13:13.962Z,100.00
2018-09-14T02:15:41.136Z,100.00
2018-09-14T02:18:08.321Z,100.00
2018-09-14T02:20:36.648Z,100.00
2018-09-14T02:23:03.813Z,100.00
2018-09-14T02:25:30.947Z,100.00
2018-09-14T02:27:58.064Z,100.00
2018-09-14T02:30:25.204Z,100.00
2018-09-14T02:32:52.343Z,100.00
2018-09-14T02:35:19.432Z,100.00
2018-09-14T02:37:46.592Z,100.00
2018-09-14T02:40:13.728Z,100.00
2018-09-14T02:42:40.871Z,100.00
2018-09-14T02:45:08.064Z,100.00
2018-09-14T02:47:35.292Z,100.00
2018-09-14T02:50:02.502Z,100.00
2018-09-14T02:52:29.625Z,100.00
2018-09-14T02:54:56.808Z,100.00
2018-09-14T02:57:23.946Z,100.00
2018-09-14T02:59:51.067Z,100.00
2018-09-14T03:02:18.276Z,100.00
2018-09-14T03:04:45.377Z,100.00
2018-09-14T03:07:12.453Z,100.00
2018-09-14T03:09:39.728Z,100.00
2018-09-14T03:12:06.901Z,100.00
2018-09-14T03:14:34.053Z,100.00
2018-09-14T03:17:01.308Z,100.00
2018-09-14T03:19:28.406Z,100.00
2018-09-14T03:21:55.600Z,100.00
2018-09-14T03:24:22.757Z,100.00
2018-09-14T03:26:49.913Z,100.00
2018-09-14T03:29:17.092Z,100.00
2018-09-14T03:31:44.264Z,100.00
2018-09-14T03:34:11.348Z,100.00
2018-09-14T03:36:38.449Z,100.00
2018-09-14T03:39:07.139Z,100.00
2018-09-14T03:41:34.261Z,100.00
2018-09-14T03:44:01.945Z,100.00
2018-09-14T03:46:29.171Z,100.00
2018-09-14T03:48:56.271Z,100.00
2018-09-14T03:51:23.409Z,100.00
2018-09-14T03:53:50.556Z,100.00
2018-09-14T03:56:17.708Z,100.00
2018-09-14T03:58:44.851Z,100.00
2018-09-14T04:01:11.992Z,100.00
2018-09-14T04:03:39.137Z,100.00
2018-09-14T04:06:06.296Z,100.00
2018-09-14T04:08:33.460Z,100.00
2018-09-14T04:11:00.667Z,100.00
2018-09-14T04:13:27.804Z,100.00
2018-09-14T04:15:54.936Z,100.00
2018-09-14T04:18:22.229Z,100.00
2018-09-14T04:20:49.341Z,100.00
2018-09-14T04:23:16.491Z,100.00
2018-09-14T04:25:43.645Z,100.00
2018-09-14T04:28:10.793Z,100.00
2018-09-14T04:30:38.008Z,100.00
2018-09-14T04:33:05.121Z,100.00
2018-09-14T04:35:32.326Z,100.00
2018-09-14T04:37:59.530Z,100.00
2018-09-14T04:40:26.654Z,100.00
2018-09-14T04:42:53.786Z,100.00
2018-09-14T04:45:20.890Z,100.00
2018-09-14T04:47:47.972Z,100.00
2018-09-14T04:50:15.112Z,100.00
2018-09-14T04:52:42.237Z,100.00
2018-09-14T04:55:09.425Z,100.00
2018-09-14T04:57:36.596Z,100.00
2018-09-14T05:00:03.951Z,100.00
2018-09-14T05:02:31.073Z,100.00
2018-09-14T05:04:58.233Z,100.00
2018-09-14T05:07:25.366Z,100.00
2018-09-14T05:09:52.525Z,100.00
2018-09-14T05:12:19.651Z,100.00
2018-09-14T05:14:46.793Z,100.00
2018-09-14T05:17:14.011Z,100.00
2018-09-14T05:19:41.170Z,100.00
2018-09-14T05:22:08.328Z,100.00
2018-09-14T05:24:35.514Z,100.00
2018-09-14T05:27:02.600Z,100.00
2018-09-14T05:29:29.810Z,100.00
2018-09-14T05:31:56.957Z,100.00
2018-09-14T05:34:24.053Z,100.00
2018-09-14T05:36:51.227Z,100.00
2018-09-14T05:39:18.388Z,100.00
2018-09-14T05:41:45.570Z,100.00
2018-09-14T05:44:12.836Z,100.00
2018-09-14T05:46:39.948Z,100.00
2018-09-14T05:49:07.104Z,100.00
2018-09-14T05:51:34.194Z,100.00
2018-09-14T05:54:01.313Z,100.00
2018-09-14T05:56:28.437Z,100.00
2018-09-14T05:58:55.612Z,100.00
2018-09-14T06:01:22.732Z,100.00
2018-09-14T06:03:49.881Z,100.00
2018-09-14T06:06:17.034Z,100.00
2018-09-14T06:08:44.185Z,100.00
2018-09-14T06:11:11.348Z,100.00
2018-09-14T06:13:38.772Z,100.00
2018-09-14T06:16:05.980Z,100.00
2018-09-14T06:18:33.114Z,100.00
2018-09-14T06:21:00.257Z,100.00
2018-09-14T06:23:27.424Z,100.00
2018-09-14T06:25:54.542Z,100.00
2018-09-14T06:28:21.773Z,100.00
2018-09-14T06:30:48.936Z,100.00
2018-09-14T06:33:16.043Z,100.00
2018-09-14T06:35:43.232Z,100.00
2018-09-14T06:38:10.418Z,100.00
2018-09-14T06:40:37.589Z,100.00
2018-09-14T06:43:04.741Z,100.00
2018-09-14T06:45:31.858Z,100.00
2018-09-14T06:47:58.962Z,100.00
2018-09-14T06:50:26.193Z,100.00
2018-09-14T06:52:53.338Z,100.00
2018-09-14T06:55:20.476Z,100.00
2018-09-14T06:57:47.585Z,100.00
2018-09-14T07:00:14.782Z,100.00
2018-09-14T07:02:41.948Z,100.00
2018-09-14T07:05:09.064Z,100.00
2018-09-14T07:07:36.209Z,100.00
2018-09-14T07:10:03.679Z,100.00
2018-09-14T07:12:30.821Z,100.00
2018-09-14T07:14:57.960Z,100.00
2018-09-14T07:17:25.145Z,100.00
2018-09-14T07:19:52.264Z,100.00
2018-09-14T07:22:19.512Z,100.00
2018-09-14T07:24:46.647Z,100.00
2018-09-14T07:27:13.660Z,100.00
2018-09-14T07:29:40.843Z,100.00
2018-09-14T07:32:07.961Z,100.00
2018-09-14T07:34:35.152Z,100.00
2018-09-14T07:37:02.395Z,100.00
2018-09-14T07:39:29.517Z,100.00
2018-09-14T07:41:56.745Z,100.00
2018-09-14T07:44:23.909Z,100.00
2018-09-14T07:46:51.073Z,100.00
2018-09-14T07:49:18.214Z,100.00
2018-09-14T07:51:45.338Z,100.00
2018-09-14T07:54:12.503Z,100.00
2018-09-14T07:56:39.656Z,100.00
2018-09-14T07:59:06.796Z,100.00
2018-09-14T08:01:33.913Z,100.00
2018-09-14T08:04:01.427Z,100.00
2018-09-14T08:06:28.841Z,100.00
2018-09-14T08:08:55.968Z,100.00
2018-09-14T08:11:23.244Z,100.00
2018-09-14T08:13:50.409Z,100.00
2018-09-14T08:16:17.572Z,100.00
2018-09-14T08:18:44.741Z,100.00
2018-09-14T08:21:11.966Z,99.27
2018-09-14T08:23:39.072Z,99.25
2018-09-14T08:26:06.218Z,98.43
2018-09-14T08:28:33.391Z,99.04
2018-09-14T08:31:00.604Z,99.23
2018-09-14T08:33:27.773Z,98.06
2018-09-14T08:35:55.017Z,97.29
2018-09-14T08:38:22.157Z,98.11
2018-09-14T08:40:49.330Z,98.32
2018-09-14T08:43:16.545Z,98.71
2018-09-14T08:45:43.682Z,98.38
2018-09-14T08:48:10.832Z,96.84
2018-09-14T08:50:38.001Z,96.23
2018-09-14T08:53:05.165Z,95.90
2018-09-14T08:55:32.268Z,97.05
2018-09-14T08:57:59.552Z,96.20
2018-09-14T09:00:26.704Z,95.77
2018-09-14T09:02:54.282Z,94.09
2018-09-14T09:05:22.129Z,94.26
2018-09-14T09:07:49.664Z,94.43
2018-09-14T09:10:16.780Z,93.06
2018-09-14T09:12:43.933Z,92.76
2018-09-14T09:15:11.135Z,93.13
2018-09-14T09:17:38.331Z,93.26
2018-09-14T09:20:05.747Z,94.35
2018-09-14T09:22:32.840Z,93.82
2018-09-14T09:24:59.977Z,94.79
2018-09-14T09:27:27.133Z,93.26
2018-09-14T09:29:54.331Z,93.37
2018-09-14T09:32:21.491Z,92.57
2018-09-14T09:34:48.684Z,91.78
2018-09-14T09:37:15.818Z,90.78
2018-09-14T09:39:43.026Z,91.83
2018-09-14T09:42:10.174Z,91.56
2018-09-14T09:44:37.335Z,93.26
2018-09-14T09:47:04.529Z,92.92
2018-09-14T09:49:31.716Z,93.20
2018-09-14T09:51:58.865Z,90.80
2018-09-14T09:54:25.993Z,89.77
2018-09-14T09:56:53.432Z,91.19
2018-09-14T09:59:20.584Z,89.15
2018-09-14T10:01:53.261Z,85.63
2018-09-14T10:04:25.113Z,85.84
2018-09-14T10:06:52.661Z,86.53
2018-09-14T10:09:19.833Z,86.85
2018-09-14T10:11:47.040Z,82.80
2018-09-14T10:14:14.239Z,83.29
2018-09-14T10:16:48.234Z,84.37
2018-09-14T10:19:15.394Z,82.35
2018-09-14T10:21:42.552Z,82.05
2018-09-14T10:24:09.676Z,82.01
2018-09-14T10:26:36.811Z,81.55
2018-09-14T10:29:03.982Z,84.53
2018-09-14T10:31:31.073Z,85.29
2018-09-14T10:33:58.255Z,85.95
2018-09-14T10:36:25.323Z,86.48
2018-09-14T10:38:52.540Z,84.40
2018-09-14T10:41:19.705Z,85.28
2018-09-14T10:43:46.882Z,82.61
2018-09-14T10:46:14.008Z,83.22
2018-09-14T10:48:41.265Z,83.00
2018-09-14T10:51:08.433Z,81.98
2018-09-14T10:53:35.741Z,78.55
2018-09-14T10:56:02.925Z,76.73
2018-09-14T10:58:37.596Z,75.83
2018-09-14T11:01:04.805Z,73.59
2018-09-14T11:03:32.098Z,77.53
2018-09-14T11:05:59.197Z,74.11
2018-09-14T11:08:26.329Z,73.16
2018-09-14T11:10:53.456Z,73.16
2018-09-14T11:13:20.672Z,75.03
2018-09-14T11:15:47.820Z,75.88
2018-09-14T11:18:14.953Z,73.54
2018-09-14T11:20:42.143Z,76.25
2018-09-14T11:23:09.314Z,78.81
2018-09-14T11:25:36.535Z,77.15
2018-09-14T11:28:03.873Z,77.54
2018-09-14T11:30:30.875Z,77.40
2018-09-14T11:32:58.053Z,76.84
2018-09-14T11:35:25.172Z,76.85
2018-09-14T11:37:52.423Z,77.42
2018-09-14T11:40:19.547Z,75.94
2018-09-14T11:42:46.748Z,76.85
2018-09-14T11:45:13.964Z,75.91
2018-09-14T11:47:41.132Z,75.24
2018-09-14T11:50:08.288Z,74.94
2018-09-14T11:52:35.455Z,73.75
2018-09-14T11:55:02.828Z,72.62
2018-09-14T11:57:29.981Z,70.37
2018-09-14T11:59:57.128Z,69.66
2018-09-14T12:02:24.892Z,70.51
2018-09-14T12:04:53.687Z,70.12
2018-09-14T12:07:20.871Z,69.74
2018-09-14T12:09:48.033Z,70.87
2018-09-14T12:12:15.192Z,72.39
2018-09-14T12:14:42.416Z,71.50
2018-09-14T12:17:10.180Z,75.65
2018-09-14T12:19:37.324Z,74.63
2018-09-14T12:22:04.517Z,77.04
2018-09-14T12:24:31.604Z,76.13
2018-09-14T12:26:58.762Z,74.17
2018-09-14T12:29:25.989Z,75.70
2018-09-14T12:31:53.137Z,75.17
2018-09-14T12:34:20.250Z,75.74
2018-09-14T12:36:47.533Z,74.97
2018-09-14T12:39:14.737Z,73.96
2018-09-14T12:41:41.882Z,70.28
2018-09-14T12:44:09.081Z,68.14
2018-09-14T12:46:36.259Z,63.80
2018-09-14T12:49:03.616Z,63.00
2018-09-14T12:51:30.868Z,59.89
2018-09-14T12:53:57.984Z,59.55
2018-09-14T12:56:25.203Z,58.42
2018-09-14T12:58:52.402Z,53.07
2018-09-14T13:01:19.576Z,53.84
2018-09-14T13:03:46.757Z,54.47
2018-09-14T13:06:13.900Z,55.37
2018-09-14T13:08:41.009Z,57.04
2018-09-14T13:11:08.161Z,58.32
2018-09-14T13:13:35.296Z,60.70
2018-09-14T13:16:02.420Z,62.76
2018-09-14T13:18:29.643Z,63.60
2018-09-14T13:20:56.787Z,63.17
2018-09-14T13:23:24.009Z,63.73
2018-09-14T13:25:51.215Z,61.59
2018-09-14T13:28:18.416Z,58.93
2018-09-14T13:30:45.521Z,56.18
2018-09-14T13:33:12.725Z,53.65
2018-09-14T13:35:39.881Z,53.09
2018-09-14T13:38:07.057Z,54.27
2018-09-14T13:40:34.218Z,55.02
2018-09-14T13:43:01.396Z,57.57
2018-09-14T13:45:28.841Z,59.40
2018-09-14T13:47:56.077Z,54.02
2018-09-14T13:50:23.247Z,53.93
2018-09-14T13:52:50.512Z,53.19
2018-09-14T13:55:17.621Z,53.05
2018-09-14T13:57:44.883Z,51.65
2018-09-14T14:00:12.138Z,51.26
2018-09-14T14:02:39.402Z,50.05
2018-09-14T14:05:06.625Z,50.90
2018-09-14T14:07:33.951Z,49.72
2018-09-14T14:10:01.116Z,48.82
2018-09-14T14:12:28.387Z,47.43
2018-09-14T14:14:55.656Z,47.21
2018-09-14T14:17:22.877Z,47.12
2018-09-14T14:19:50.142Z,50.19
2018-09-14T14:22:17.377Z,49.43
2018-09-14T14:24:44.586Z,47.53
2018-09-14T14:27:11.854Z,45.79
2018-09-14T14:29:39.077Z,46.94
2018-09-14T14:32:06.441Z,47.74
2018-09-14T14:34:33.612Z,50.37
2018-09-14T14:37:00.798Z,51.05
2018-09-14T14:39:28.201Z,51.42
2018-09-14T14:41:55.356Z,49.76
2018-09-14T14:44:22.566Z,49.95
2018-09-14T14:46:49.809Z,49.74
2018-09-14T14:49:17.015Z,48.83
2018-09-14T14:51:44.429Z,49.50
2018-09-14T14:54:11.702Z,50.76
2018-09-14T14:56:38.858Z,47.07
2018-09-14T14:59:05.993Z,46.13
2018-09-14T15:01:33.179Z,45.62
2018-09-14T15:04:00.361Z,44.26
2018-09-14T15:06:27.721Z,47.22
2018-09-14T15:08:54.902Z,46.71
2018-09-14T15:11:22.073Z,48.06
2018-09-14T15:13:49.348Z,47.83
2018-09-14T15:16:16.491Z,50.45
2018-09-14T15:18:43.689Z,53.51
2018-09-14T15:21:10.915Z,51.62
2018-09-14T15:23:38.062Z,50.35
2018-09-14T15:26:05.245Z,52.86
2018-09-14T15:28:32.482Z,51.38
2018-09-14T15:30:59.657Z,54.29
2018-09-14T15:33:26.786Z,54.52
2018-09-14T15:35:54.129Z,57.05
2018-09-14T15:38:21.276Z,57.17
2018-09-14T15:40:48.548Z,57.63
2018-09-14T15:43:15.741Z,59.22
2018-09-14T15:45:42.904Z,59.26
2018-09-14T15:48:10.261Z,59.85
2018-09-14T15:50:37.458Z,60.15
2018-09-14T15:53:04.617Z,60.22
2018-09-14T15:55:31.784Z,60.58
2018-09-14T15:57:58.968Z,60.23
2018-09-14T16:00:26.218Z,60.76
2018-09-14T16:02:53.735Z,60.91
2018-09-14T16:05:20.923Z,60.82
2018-09-14T16:07:48.459Z,60.99
2018-09-14T16:10:15.758Z,62.45
2018-09-14T16:12:42.908Z,62.21
2018-09-14T16:15:10.312Z,62.85
2018-09-14T16:17:37.606Z,62.00
2018-09-14T16:20:05.535Z,62.80
2018-09-14T16:22:32.974Z,63.64
2018-09-14T16:25:00.114Z,63.39
2018-09-14T16:27:27.276Z,64.59
2018-09-14T16:29:54.544Z,62.15
2018-09-14T16:32:21.792Z,63.57
2018-09-14T16:34:48.962Z,64.71
2018-09-14T16:37:16.200Z,67.11
2018-09-14T16:39:43.281Z,68.13
2018-09-14T16:42:10.441Z,68.05
2018-09-14T16:44:39.534Z,69.27
2018-09-14T16:47:07.157Z,70.17
2018-09-14T16:49:34.376Z,70.75
2018-09-14T16:52:01.634Z,71.65
2018-09-14T16:54:28.930Z,72.80
2018-09-14T16:56:56.405Z,74.28
2018-09-14T16:59:23.597Z,73.29
2018-09-14T17:01:50.945Z,73.46
2018-09-14T17:04:18.107Z,72.09
2018-09-14T17:06:45.386Z,73.70
2018-09-14T17:09:12.707Z,74.07
2018-09-14T17:11:40.127Z,75.71
2018-09-14T17:14:08.081Z,76.47
2018-09-14T17:16:35.467Z,75.37
2018-09-14T17:19:02.605Z,75.57
2018-09-14T17:21:30.081Z,76.61
2018-09-14T17:23:57.281Z,76.08
2018-09-14T17:26:24.585Z,75.82
2018-09-14T17:28:52.019Z,75.61
2018-09-14T17:31:20.050Z,75.28
2018-09-14T17:33:47.214Z,77.94
2018-09-14T17:36:14.589Z,78.50
2018-09-14T17:38:41.792Z,79.37
2018-09-14T17:41:09.119Z,79.87
2018-09-14T17:43:36.552Z,81.71
2018-09-14T17:46:03.838Z,80.18
2018-09-14T17:48:31.099Z,79.57
2018-09-14T17:50:58.477Z,80.22
2018-09-14T17:53:25.737Z,83.33
2018-09-14T17:55:53.095Z,83.57
2018-09-14T17:58:20.490Z,82.33
2018-09-14T18:00:47.736Z,81.82
2018-09-14T18:03:22.059Z,80.08
2018-09-14T18:05:49.217Z,83.52
2018-09-14T18:08:16.582Z,83.76
2018-09-14T18:10:43.987Z,81.72
2018-09-14T18:13:11.260Z,81.29
2018-09-14T18:15:38.419Z,81.62
2018-09-14T18:18:05.758Z,82.90
2018-09-14T18:20:33.027Z,82.82
2018-09-14T18:23:00.291Z,82.97
2018-09-14T18:25:27.616Z,82.66
2018-09-14T18:27:54.936Z,83.92
2018-09-14T18:30:22.274Z,87.38
2018-09-14T18:32:49.653Z,87.34
2018-09-14T18:35:17.058Z,86.44
2018-09-14T18:37:44.434Z,85.16
2018-09-14T18:40:12.044Z,84.59
2018-09-14T18:42:39.429Z,84.91
2018-09-14T18:45:07.055Z,84.71
2018-09-14T18:47:34.655Z,84.10
2018-09-14T18:50:02.438Z,83.96
2018-09-14T18:52:30.072Z,85.99
2018-09-14T18:54:57.692Z,85.45
2018-09-14T18:57:25.210Z,85.43
2018-09-14T18:59:52.744Z,86.19
2018-09-14T19:02:20.387Z,89.11
2018-09-14T19:04:48.030Z,89.87
2018-09-14T19:07:15.512Z,89.12
2018-09-14T19:09:43.103Z,87.29
2018-09-14T19:12:10.677Z,87.05
2018-09-14T19:14:38.186Z,87.03
2018-09-14T19:17:05.917Z,87.23
2018-09-14T19:19:33.577Z,87.85
2018-09-14T19:22:01.431Z,90.55
2018-09-14T19:24:29.069Z,90.44
2018-09-14T19:26:56.905Z,89.72
2018-09-14T19:29:24.549Z,89.25
2018-09-14T19:31:52.154Z,88.58
2018-09-14T19:34:19.787Z,88.47
2018-09-14T19:36:47.367Z,88.25
2018-09-14T19:39:14.959Z,89.13
2018-09-14T19:41:42.605Z,89.21
2018-09-14T19:44:10.403Z,89.05
2018-09-14T19:46:38.035Z,89.83
2018-09-14T19:49:05.582Z,88.61
2018-09-14T19:51:33.230Z,88.26
2018-09-14T19:54:00.773Z,88.92
2018-09-14T19:56:28.313Z,90.80
2018-09-14T19:58:56.050Z,90.13
2018-09-14T20:01:23.483Z,89.31
2018-09-14T20:03:50.989Z,89.66
2018-09-14T20:06:18.490Z,89.92
2018-09-14T20:08:45.773Z,90.24
2018-09-14T20:11:13.278Z,90.67
2018-09-14T20:13:42.963Z,89.95
2018-09-14T20:16:10.342Z,90.50
2018-09-14T20:18:37.671Z,90.06
2018-09-14T20:21:04.962Z,90.13
2018-09-14T20:23:32.272Z,91.39
2018-09-14T20:25:59.658Z,90.93
2018-09-14T20:28:26.925Z,90.64
2018-09-14T20:30:54.237Z,90.46
2018-09-14T20:33:21.533Z,90.75
2018-09-14T20:35:48.771Z,93.93
2018-09-14T20:38:16.176Z,93.95
2018-09-14T20:40:43.435Z,92.39
2018-09-14T20:43:11.325Z,92.19
2018-09-14T20:45:38.581Z,91.58
2018-09-14T20:48:05.792Z,91.58
2018-09-14T20:50:33.059Z,90.00
2018-09-14T20:53:00.528Z,90.76
2018-09-14T20:55:28.736Z,91.55
2018-09-14T20:58:02.497Z,91.11
2018-09-14T21:00:30.760Z,91.57
2018-09-14T21:02:57.964Z,92.16
2018-09-14T21:05:25.152Z,90.97
2018-09-14T21:07:52.484Z,91.08
2018-09-14T21:10:19.793Z,92.17
2018-09-14T21:12:47.977Z,93.65
2018-09-14T21:15:15.313Z,93.43
2018-09-14T21:17:42.614Z,93.38
2018-09-14T21:20:09.755Z,92.72
2018-09-14T21:22:37.042Z,92.94
2018-09-14T21:25:04.607Z,93.50
2018-09-14T21:27:32.022Z,92.92
2018-09-14T21:29:59.305Z,94.24
2018-09-14T21:32:26.454Z,94.67
2018-09-14T21:34:53.703Z,93.17
2018-09-14T21:37:20.872Z,92.97
2018-09-14T21:39:48.725Z,93.57
2018-09-14T21:42:16.196Z,92.47
2018-09-14T21:44:43.533Z,94.03
2018-09-14T21:47:12.488Z,94.34
2018-09-14T21:49:44.496Z,96.10
2018-09-14T21:52:11.800Z,95.46
2018-09-14T21:54:38.986Z,96.15
2018-09-14T21:57:05.992Z,94.55
2018-09-14T21:59:33.136Z,93.55
2018-09-14T22:02:00.410Z,94.93
2018-09-14T22:04:27.760Z,95.86
2018-09-14T22:06:54.884Z,95.77
2018-09-14T22:09:22.776Z,94.94
2018-09-14T22:11:49.921Z,94.65
2018-09-14T22:14:17.097Z,94.58
2018-09-14T22:16:44.653Z,96.56
2018-09-14T22:19:11.817Z,97.81
2018-09-14T22:21:39.110Z,98.74
2018-09-14T22:24:06.361Z,97.87
2018-09-14T22:26:33.541Z,95.68
2018-09-14T22:29:00.776Z,94.78
2018-09-14T22:31:28.021Z,94.84
2018-09-14T22:46:54.708Z,94.94
2018-09-14T22:49:21.900Z,98.04
2018-09-14T22:51:49.124Z,98.03
2018-09-14T22:54:16.271Z,97.34
2018-09-14T22:56:43.408Z,97.02
2018-09-14T22:59:10.645Z,95.88
2018-09-14T23:01:37.928Z,95.67
2018-09-14T23:04:05.183Z,96.24
2018-09-14T23:06:32.378Z,97.78
2018-09-14T23:08:59.564Z,96.62
2018-09-14T23:11:26.830Z,96.35
2018-09-14T23:13:53.964Z,96.97
2018-09-14T23:16:21.696Z,98.47
2018-09-14T23:18:49.012Z,97.58
2018-09-14T23:21:16.512Z,97.28
2018-09-14T23:23:43.891Z,97.07
2018-09-14T23:26:13.409Z,99.19
2018-09-14T23:28:40.735Z,99.06
2018-09-14T23:31:08.364Z,98.41
2018-09-14T23:33:35.574Z,97.55
2018-09-14T23:36:02.739Z,97.94
2018-09-14T23:38:29.816Z,97.54
2018-09-14T23:40:56.976Z,97.18
2018-09-14T23:43:24.151Z,97.41
2018-09-14T23:45:51.308Z,98.14
2018-09-14T23:48:18.476Z,97.99
2018-09-14T23:50:45.624Z,97.69
2018-09-14T23:53:12.712Z,98.71
2018-09-14T23:55:39.967Z,97.16
2018-09-14T23:58:07.132Z,95.83
